createdAt,value
2023-02-08T00:01:46.122Z,2.10
2023-02-08T00:04:13.226Z,2.10
2023-02-08T00:06:40.545Z,2.10
2023-02-08T00:09:08.732Z,2.10
2023-02-08T00:11:35.907Z,2.10
2023-02-08T00:14:05.237Z,2.10
2023-02-08T00:16:39.229Z,2.00
2023-02-08T00:19:08.627Z,2.00
2023-02-08T00:21:38.042Z,2.00
2023-02-08T00:24:07.599Z,1.90
2023-02-08T00:26:37.532Z,1.90
2023-02-08T00:29:06.943Z,1.90
2023-02-08T00:31:39.041Z,1.80
2023-02-08T00:34:08.565Z,1.80
2023-02-08T00:36:37.918Z,1.80
2023-02-08T00:39:05.082Z,1.80
2023-02-08T00:41:34.672Z,1.70
2023-02-08T00:44:04.192Z,1.70
2023-02-08T00:46:31.465Z,1.70
2023-02-08T00:49:00.920Z,1.60
2023-02-08T00:51:30.628Z,1.60
2023-02-08T00:53:57.736Z,1.60
2023-02-08T00:56:29.400Z,1.60
2023-02-08T00:58:58.604Z,1.50
2023-02-08T01:01:28.035Z,1.50
2023-02-08T01:03:57.644Z,1.50
2023-02-08T01:06:24.743Z,1.50
2023-02-08T01:08:54.281Z,1.50
2023-02-08T01:11:25.067Z,1.50
2023-02-08T01:13:54.449Z,1.50
2023-02-08T01:16:24.824Z,1.50
2023-02-08T01:18:56.145Z,1.40
2023-02-08T01:21:29.888Z,1.40
2023-02-08T01:24:02.073Z,1.40
2023-02-08T01:26:29.513Z,1.40
2023-02-08T01:28:57.611Z,1.40
2023-02-08T01:31:33.832Z,1.40
2023-02-08T01:34:05.026Z,1.40
2023-02-08T01:36:35.302Z,1.40
2023-02-08T01:39:04.260Z,1.40
2023-02-08T01:41:38.349Z,1.40
2023-02-08T01:44:13.649Z,1.40
2023-02-08T01:46:51.138Z,1.40
2023-02-08T01:49:27.831Z,1.40
2023-02-08T01:52:03.617Z,1.40
2023-02-08T01:54:44.018Z,1.40
2023-02-08T01:57:14.055Z,1.40
2023-02-08T01:59:57.263Z,1.40
2023-02-08T02:02:28.293Z,1.40
2023-02-08T02:04:55.938Z,1.40
2023-02-08T02:07:28.651Z,1.40
2023-02-08T02:10:20.672Z,1.40
2023-02-08T02:12:54.754Z,1.40
2023-02-08T02:15:24.161Z,1.40
2023-02-08T02:17:54.190Z,1.40
2023-02-08T02:20:58.879Z,1.40
2023-02-08T02:23:40.722Z,1.40
2023-02-08T02:26:32.530Z,1.30
2023-02-08T02:28:59.637Z,1.30
2023-02-08T02:31:38.448Z,1.30
2023-02-08T02:34:10.778Z,1.30
2023-02-08T02:36:50.413Z,1.30
2023-02-08T02:39:41.414Z,1.30
2023-02-08T02:42:49.248Z,1.30
2023-02-08T02:45:35.167Z,1.20
2023-02-08T02:48:20.389Z,1.20
2023-02-08T02:50:53.275Z,1.20
2023-02-08T02:53:37.642Z,1.20
2023-02-08T02:56:21.517Z,1.10
2023-02-08T02:58:53.036Z,1.20
2023-02-08T03:01:30.107Z,1.10
2023-02-08T03:03:58.114Z,1.10
2023-02-08T03:06:54.295Z,1.10
2023-02-08T03:09:42.643Z,1.10
2023-02-08T03:12:43.537Z,1.10
2023-02-08T03:15:41.548Z,1.10
2023-02-08T03:18:32.802Z,1.10
2023-02-08T03:21:27.541Z,1.00
2023-02-08T03:24:02.135Z,1.00
2023-02-08T03:26:36.606Z,1.10
2023-02-08T03:29:06.548Z,1.10
2023-02-08T03:31:48.196Z,1.10
2023-02-08T03:34:43.449Z,1.10
2023-02-08T03:37:26.346Z,1.10
2023-02-08T03:40:06.362Z,1.00
2023-02-08T03:42:37.431Z,1.00
2023-02-08T03:45:22.057Z,1.00
2023-02-08T03:48:00.367Z,0.90
2023-02-08T03:50:30.036Z,0.90
2023-02-08T03:52:59.519Z,0.80
2023-02-08T03:55:29.962Z,0.80
2023-02-08T03:58:03.914Z,0.80
2023-02-08T04:00:35.089Z,0.80
2023-02-08T04:03:22.054Z,0.80
2023-02-08T04:05:50.524Z,0.70
2023-02-08T04:08:19.702Z,0.70
2023-02-08T04:10:47.974Z,0.60
2023-02-08T04:13:17.461Z,0.60
2023-02-08T04:15:44.890Z,0.60
2023-02-08T04:18:14.624Z,0.50
2023-02-08T04:20:44.233Z,0.50
2023-02-08T04:23:13.472Z,0.50
2023-02-08T04:25:42.696Z,0.50
2023-02-08T04:28:12.336Z,0.50
2023-02-08T04:30:42.017Z,0.50
2023-02-08T04:33:13.164Z,0.50
2023-02-08T04:35:43.163Z,0.50
2023-02-08T04:38:10.552Z,0.50
2023-02-08T04:40:44.857Z,0.50
2023-02-08T04:43:14.186Z,0.50
2023-02-08T04:45:43.848Z,0.50
2023-02-08T04:48:13.598Z,0.50
2023-02-08T04:50:41.046Z,0.50
2023-02-08T04:53:10.725Z,0.50
2023-02-08T04:55:38.279Z,0.50
2023-02-08T04:58:07.685Z,0.40
2023-02-08T05:00:36.980Z,0.40
2023-02-08T05:03:04.618Z,0.40
2023-02-08T05:05:36.559Z,0.40
2023-02-08T05:08:06.954Z,0.40
2023-02-08T05:10:34.256Z,0.40
2023-02-08T05:13:03.728Z,0.40
2023-02-08T05:15:30.863Z,0.30
2023-02-08T05:17:57.961Z,0.30
2023-02-08T05:20:25.092Z,0.30
2023-02-08T05:22:54.476Z,0.30
2023-02-08T05:25:23.951Z,0.30
2023-02-08T05:27:53.117Z,0.20
2023-02-08T05:30:22.797Z,0.20
2023-02-08T05:32:52.443Z,0.20
2023-02-08T05:35:19.562Z,0.20
2023-02-08T05:37:49.304Z,0.20
2023-02-08T05:40:16.497Z,0.20
2023-02-08T05:42:44.573Z,0.20
2023-02-08T05:45:14.068Z,0.20
2023-02-08T05:47:43.463Z,0.20
2023-02-08T05:50:10.647Z,0.20
2023-02-08T05:52:42.831Z,0.20
2023-02-08T05:55:14.566Z,0.20
2023-02-08T05:57:44.053Z,0.20
2023-02-08T06:00:11.767Z,0.20
2023-02-08T06:02:38.929Z,0.10
2023-02-08T06:05:06.405Z,0.10
2023-02-08T06:07:38.043Z,0.10
2023-02-08T06:10:05.777Z,0.10
2023-02-08T06:12:35.043Z,0.10
2023-02-08T06:15:02.248Z,0.10
2023-02-08T06:17:31.450Z,0.10
2023-02-08T06:20:00.675Z,0.10
2023-02-08T06:22:30.340Z,0.10
2023-02-08T06:24:57.446Z,0.10
2023-02-08T06:27:24.564Z,0.10
2023-02-08T06:29:54.953Z,0.10
2023-02-08T06:32:24.499Z,0.10
2023-02-08T06:34:51.720Z,0.00
2023-02-08T06:37:21.453Z,0.00
2023-02-08T06:39:48.648Z,0.00
2023-02-08T06:42:18.271Z,0.00
2023-02-08T06:44:54.653Z,0.00
2023-02-08T06:47:29.285Z,0.00
2023-02-08T06:49:58.481Z,0.00
2023-02-08T06:52:25.623Z,0.00
2023-02-08T06:54:54.964Z,0.00
2023-02-08T06:57:24.150Z,0.00
2023-02-08T06:59:55.829Z,0.00
2023-02-08T07:02:25.151Z,0.00
2023-02-08T07:04:52.305Z,0.00
2023-02-08T07:07:21.818Z,0.00
2023-02-08T07:09:51.264Z,0.00
2023-02-08T07:12:23.045Z,0.10
2023-02-08T07:14:52.361Z,0.00
2023-02-08T07:17:24.092Z,0.10
2023-02-08T07:19:53.264Z,0.10
2023-02-08T07:22:22.704Z,0.10
2023-02-08T07:24:55.084Z,0.10
2023-02-08T07:27:23.963Z,0.00
2023-02-08T07:29:52.181Z,0.00
2023-02-08T07:32:19.283Z,0.00
2023-02-08T07:34:54.087Z,0.00
2023-02-08T07:37:21.192Z,0.00
2023-02-08T07:39:48.277Z,0.10
2023-02-08T07:42:15.439Z,0.10
2023-02-08T07:44:42.613Z,0.10
2023-02-08T07:47:12.073Z,0.10
2023-02-08T07:49:39.136Z,0.10
2023-02-08T07:52:11.174Z,0.20
2023-02-08T07:54:38.308Z,0.20
2023-02-08T07:57:08.174Z,0.30
2023-02-08T07:59:35.362Z,0.30
2023-02-08T08:02:02.552Z,0.30
2023-02-08T08:04:34.394Z,0.30
2023-02-08T08:07:01.491Z,0.40
2023-02-08T08:09:28.619Z,0.40
2023-02-08T08:11:57.925Z,0.40
2023-02-08T08:14:27.189Z,0.40
2023-02-08T08:16:57.355Z,0.50
2023-02-08T08:19:24.516Z,0.50
2023-02-08T08:21:51.641Z,0.50
2023-02-08T08:24:21.214Z,0.50
2023-02-08T08:26:48.351Z,0.60
2023-02-08T08:29:20.068Z,0.60
2023-02-08T08:31:50.015Z,0.60
2023-02-08T08:34:24.643Z,0.70
2023-02-08T08:36:56.420Z,0.70
2023-02-08T08:39:27.332Z,0.70
2023-02-08T08:41:58.792Z,0.80
2023-02-08T08:44:28.530Z,0.80
2023-02-08T08:47:03.368Z,0.90
2023-02-08T08:49:30.615Z,0.90
2023-02-08T08:51:58.186Z,0.90
2023-02-08T08:54:29.907Z,1.00
2023-02-08T08:56:57.092Z,1.00
2023-02-08T08:59:24.979Z,1.10
2023-02-08T09:01:59.510Z,1.10
2023-02-08T09:04:26.698Z,1.20
2023-02-08T09:06:56.568Z,1.20
2023-02-08T09:09:23.755Z,1.30
2023-02-08T09:11:53.424Z,1.30
2023-02-08T09:14:25.470Z,1.40
2023-02-08T09:17:00.125Z,1.40
2023-02-08T09:19:29.566Z,1.50
2023-02-08T09:22:00.630Z,1.50
2023-02-08T09:24:27.844Z,1.60
2023-02-08T09:27:02.151Z,1.60
2023-02-08T09:29:32.903Z,1.70
2023-02-08T09:32:02.714Z,1.70
2023-02-08T09:34:32.055Z,1.80
2023-02-08T09:37:01.691Z,1.90
2023-02-08T09:39:28.925Z,1.90
2023-02-08T09:42:17.210Z,2.00
2023-02-08T09:45:19.351Z,2.00
2023-02-08T09:47:56.705Z,2.10
2023-02-08T09:50:23.875Z,2.10
2023-02-08T09:53:11.377Z,2.20
2023-02-08T09:55:48.127Z,2.30
2023-02-08T09:58:34.012Z,2.40
2023-02-08T10:01:04.119Z,2.40
2023-02-08T10:03:45.046Z,2.50
2023-02-08T10:06:18.201Z,2.50
2023-02-08T10:08:52.161Z,2.60
2023-02-08T10:11:43.359Z,2.60
2023-02-08T10:14:35.601Z,2.70
2023-02-08T10:17:21.620Z,2.80
2023-02-08T10:20:00.257Z,2.90
2023-02-08T10:22:33.303Z,2.90
2023-02-08T10:25:37.576Z,3.00
2023-02-08T10:28:20.985Z,3.00
2023-02-08T10:31:01.621Z,3.10
2023-02-08T10:34:03.633Z,3.20
2023-02-08T10:36:35.370Z,3.30
2023-02-08T10:39:09.946Z,3.30
2023-02-08T10:41:41.989Z,3.40
2023-02-08T10:44:18.215Z,3.40
2023-02-08T10:46:58.464Z,3.40
2023-02-08T10:49:35.296Z,3.50
2023-02-08T10:52:06.138Z,3.60
2023-02-08T10:54:34.925Z,3.60
2023-02-08T10:57:14.692Z,3.70
2023-02-08T11:00:11.363Z,3.80
2023-02-08T11:02:47.240Z,3.80
2023-02-08T11:05:18.188Z,3.90
2023-02-08T11:07:46.020Z,3.90
2023-02-08T11:10:19.320Z,4.00
2023-02-08T11:12:57.229Z,4.10
2023-02-08T11:15:39.452Z,4.10
2023-02-08T11:18:18.171Z,4.20
2023-02-08T11:20:50.417Z,4.20
2023-02-08T11:23:32.553Z,4.30
2023-02-08T11:26:15.662Z,4.30
2023-02-08T11:28:44.051Z,4.40
2023-02-08T11:31:21.432Z,4.40
2023-02-08T11:34:01.753Z,4.50
2023-02-08T11:36:32.654Z,4.50
2023-02-08T11:39:19.825Z,4.50
2023-02-08T11:41:49.042Z,4.60
2023-02-08T11:44:23.533Z,4.60
2023-02-08T11:46:53.560Z,4.70
2023-02-08T11:49:30.147Z,4.70
2023-02-08T11:51:59.748Z,4.80
2023-02-08T11:54:41.312Z,4.80
2023-02-08T11:57:27.919Z,4.90
2023-02-08T12:00:19.524Z,4.90
2023-02-08T12:02:51.662Z,5.00
2023-02-08T12:05:27.547Z,5.00
2023-02-08T12:08:32.943Z,5.10
2023-02-08T12:11:16.572Z,5.20
2023-02-08T12:14:25.566Z,5.20
2023-02-08T12:17:07.430Z,5.30
2023-02-08T12:20:08.339Z,5.40
2023-02-08T12:22:44.299Z,5.40
2023-02-08T12:25:29.202Z,5.40
2023-02-08T12:28:38.230Z,5.50
2023-02-08T12:31:11.617Z,5.50
2023-02-08T12:33:56.123Z,5.50
2023-02-08T12:37:15.554Z,5.60
2023-02-08T12:40:27.311Z,5.60
2023-02-08T12:43:19.197Z,5.60
2023-02-08T12:45:49.063Z,5.70
2023-02-08T12:48:36.343Z,5.70
2023-02-08T12:51:12.853Z,5.80
2023-02-08T12:53:44.902Z,5.80
2023-02-08T12:56:17.103Z,5.80
2023-02-08T12:58:46.137Z,5.80
2023-02-08T13:01:26.015Z,5.90
2023-02-08T13:04:08.461Z,5.90
2023-02-08T13:07:09.671Z,6.00
2023-02-08T13:09:59.959Z,6.00
2023-02-08T13:12:32.550Z,6.10
2023-02-08T13:15:29.718Z,6.20
2023-02-08T13:18:17.819Z,6.20
2023-02-08T13:20:46.909Z,6.20
2023-02-08T13:23:21.237Z,6.20
2023-02-08T13:25:55.087Z,6.30
2023-02-08T13:28:24.490Z,6.30
2023-02-08T13:30:59.230Z,6.30
2023-02-08T13:34:01.970Z,6.40
2023-02-08T13:36:34.404Z,6.50
2023-02-08T13:39:06.845Z,6.50
2023-02-08T13:41:39.540Z,6.50
2023-02-08T13:44:20.149Z,6.60
2023-02-08T13:46:49.634Z,6.60
2023-02-08T13:49:44.219Z,6.60
2023-02-08T13:52:12.664Z,6.70
2023-02-08T13:54:42.120Z,6.70
2023-02-08T13:57:46.853Z,6.70
2023-02-08T14:00:33.970Z,6.80
2023-02-08T14:03:17.117Z,6.80
2023-02-08T14:05:58.042Z,6.80
2023-02-08T14:08:44.116Z,6.80
2023-02-08T14:11:17.496Z,6.80
2023-02-08T14:13:53.485Z,6.80
2023-02-08T14:16:36.034Z,6.80
2023-02-08T14:19:18.548Z,6.90
2023-02-08T14:22:00.346Z,6.90
2023-02-08T14:24:35.075Z,6.90
2023-02-08T14:27:10.870Z,6.90
2023-02-08T14:29:38.563Z,6.90
2023-02-08T14:32:08.637Z,6.90
2023-02-08T14:34:40.141Z,7.00
2023-02-08T14:37:18.509Z,7.00
2023-02-08T14:39:50.611Z,6.90
2023-02-08T14:42:52.761Z,7.00
2023-02-08T14:45:39.939Z,7.00
2023-02-08T14:48:25.841Z,7.00
2023-02-08T14:51:27.622Z,7.00
2023-02-08T14:54:01.649Z,7.10
2023-02-08T14:56:38.254Z,7.10
2023-02-08T14:59:22.575Z,7.20
2023-02-08T15:02:00.335Z,7.20
2023-02-08T15:04:30.954Z,7.20
2023-02-08T15:07:24.267Z,7.20
2023-02-08T15:09:51.668Z,7.20
2023-02-08T15:12:35.022Z,7.20
2023-02-08T15:15:09.740Z,7.20
2023-02-08T15:17:51.031Z,7.20
2023-02-08T15:20:22.727Z,7.20
2023-02-08T15:23:04.366Z,7.20
2023-02-08T15:25:33.112Z,7.20
2023-02-08T15:28:22.847Z,7.20
2023-02-08T15:30:57.976Z,7.20
2023-02-08T15:33:27.168Z,7.20
2023-02-08T15:36:07.622Z,7.20
2023-02-08T15:38:38.845Z,7.30
2023-02-08T15:41:14.674Z,7.20
2023-02-08T15:43:44.582Z,7.30
2023-02-08T15:46:23.090Z,7.30
2023-02-08T15:48:53.900Z,7.30
2023-02-08T15:51:24.418Z,7.30
2023-02-08T15:53:54.015Z,7.30
2023-02-08T15:56:37.081Z,7.30
2023-02-08T15:59:22.490Z,7.30
2023-02-08T16:01:53.282Z,7.30
2023-02-08T16:04:25.409Z,7.30
2023-02-08T16:06:55.697Z,7.30
2023-02-08T16:09:27.470Z,7.30
2023-02-08T16:11:59.310Z,7.30
2023-02-08T16:14:50.627Z,7.30
2023-02-08T16:17:43.780Z,7.30
2023-02-08T16:20:35.488Z,7.30
2023-02-08T16:23:22.429Z,7.30
2023-02-08T16:25:50.336Z,7.20
2023-02-08T16:28:32.164Z,7.20
2023-02-08T16:31:08.078Z,7.20
2023-02-08T16:33:37.326Z,7.20
2023-02-08T16:36:05.003Z,7.10
2023-02-08T16:38:36.909Z,7.10
2023-02-08T16:41:13.036Z,7.10
2023-02-08T16:43:47.161Z,7.00
2023-02-08T16:46:25.366Z,7.00
2023-02-08T16:48:55.185Z,7.00
2023-02-08T16:51:28.118Z,7.00
2023-02-08T16:54:02.492Z,6.90
2023-02-08T16:56:35.621Z,6.90
2023-02-08T16:59:05.264Z,6.90
2023-02-08T17:01:33.363Z,6.80
2023-02-08T17:04:02.974Z,6.80
2023-02-08T17:06:36.368Z,6.70
2023-02-08T17:09:06.488Z,6.70
2023-02-08T17:11:36.229Z,6.70
2023-02-08T17:14:05.197Z,6.60
2023-02-08T17:16:36.365Z,6.60
2023-02-08T17:19:06.384Z,6.50
2023-02-08T17:21:33.821Z,6.50
2023-02-08T17:24:01.788Z,6.50
2023-02-08T17:26:34.473Z,6.40
2023-02-08T17:29:08.570Z,6.40
2023-02-08T17:31:38.078Z,6.30
2023-02-08T17:34:09.950Z,6.30
2023-02-08T17:36:37.426Z,6.20
2023-02-08T17:39:10.527Z,6.20
2023-02-08T17:41:44.469Z,6.20
2023-02-08T17:44:16.389Z,6.10
2023-02-08T17:46:45.862Z,6.10
2023-02-08T17:49:16.241Z,6.00
2023-02-08T17:51:47.880Z,6.00
2023-02-08T17:54:15.484Z,6.00
2023-02-08T17:56:47.354Z,5.90
2023-02-08T17:59:16.666Z,5.90
2023-02-08T18:01:45.539Z,5.90
2023-02-08T18:04:13.441Z,5.80
2023-02-08T18:06:45.244Z,5.80
2023-02-08T18:09:12.389Z,5.80
2023-02-08T18:11:39.520Z,5.70
2023-02-08T18:14:09.063Z,5.70
2023-02-08T18:16:36.352Z,5.70
2023-02-08T18:19:07.934Z,5.70
2023-02-08T18:21:37.590Z,5.60
2023-02-08T18:24:06.130Z,5.60
2023-02-08T18:26:35.858Z,5.60
2023-02-08T18:29:04.707Z,5.50
2023-02-08T18:31:34.873Z,5.50
2023-02-08T18:34:02.091Z,5.50
2023-02-08T18:36:31.421Z,5.40
2023-02-08T18:38:58.721Z,5.40
2023-02-08T18:41:30.375Z,5.40
2023-02-08T18:44:02.434Z,5.30
2023-02-08T18:46:32.430Z,5.30
2023-02-08T18:49:05.889Z,5.20
2023-02-08T18:51:43.791Z,5.20
2023-02-08T18:54:13.806Z,5.10
2023-02-08T18:56:42.781Z,5.10
2023-02-08T18:59:14.917Z,5.10
2023-02-08T19:01:44.275Z,5.00
2023-02-08T19:04:11.544Z,5.00
2023-02-08T19:06:38.729Z,4.90
2023-02-08T19:09:10.025Z,4.90
2023-02-08T19:11:39.353Z,4.80
2023-02-08T19:14:11.217Z,4.80
2023-02-08T19:16:39.126Z,4.70
2023-02-08T19:19:09.946Z,4.70
2023-02-08T19:21:40.625Z,4.60
2023-02-08T19:24:15.146Z,4.60
2023-02-08T19:26:44.975Z,4.60
2023-02-08T19:29:16.568Z,4.50
2023-02-08T19:31:44.403Z,4.50
2023-02-08T19:34:12.896Z,4.50
2023-02-08T19:37:04.286Z,4.40
2023-02-08T19:39:31.520Z,4.40
2023-02-08T19:41:59.095Z,4.40
2023-02-08T19:44:29.049Z,4.30
2023-02-08T19:46:57.863Z,4.20
2023-02-08T19:49:28.526Z,4.20
2023-02-08T19:51:58.117Z,4.10
2023-02-08T19:54:25.492Z,4.10
2023-02-08T19:56:54.940Z,4.00
2023-02-08T19:59:26.133Z,3.90
2023-02-08T20:01:56.045Z,3.90
2023-02-08T20:04:25.816Z,3.90
2023-02-08T20:06:57.608Z,3.80
2023-02-08T20:09:29.263Z,3.80
2023-02-08T20:12:01.345Z,3.80
2023-02-08T20:14:33.863Z,3.70
2023-02-08T20:17:04.756Z,3.70
2023-02-08T20:19:31.954Z,3.70
2023-02-08T20:21:59.100Z,3.70
2023-02-08T20:24:28.549Z,3.70
2023-02-08T20:26:57.926Z,3.70
2023-02-08T20:29:27.905Z,3.60
2023-02-08T20:32:04.468Z,3.60
2023-02-08T20:34:34.173Z,3.50
2023-02-08T20:37:08.215Z,3.50
2023-02-08T20:39:36.902Z,3.50
2023-02-08T20:42:09.868Z,3.50
2023-02-08T20:44:37.047Z,3.40
2023-02-08T20:47:04.294Z,3.40
2023-02-08T20:49:32.306Z,3.30
2023-02-08T20:51:59.605Z,3.30
2023-02-08T20:54:28.971Z,3.20
2023-02-08T20:56:58.702Z,3.20
2023-02-08T20:59:30.243Z,3.10
2023-02-08T21:01:57.445Z,3.10
2023-02-08T21:04:27.162Z,3.00
2023-02-08T21:06:56.801Z,3.00
2023-02-08T21:09:28.246Z,2.90
2023-02-08T21:11:57.571Z,2.90
2023-02-08T21:14:24.736Z,2.90
2023-02-08T21:16:55.855Z,2.80
2023-02-08T21:19:27.220Z,2.80
2023-02-08T21:21:56.946Z,2.80
2023-02-08T21:24:24.815Z,2.70
2023-02-08T21:26:55.867Z,2.70
2023-02-08T21:29:23.482Z,2.70
2023-02-08T21:31:57.473Z,2.60
2023-02-08T21:34:26.817Z,2.60
2023-02-08T21:36:56.436Z,2.50
2023-02-08T21:39:25.804Z,2.50
2023-02-08T21:41:53.194Z,2.50
2023-02-08T21:44:22.815Z,2.50
2023-02-08T21:46:50.114Z,2.50
2023-02-08T21:49:36.072Z,2.40
2023-02-08T21:52:25.934Z,2.40
2023-02-08T21:54:53.632Z,2.40
2023-02-08T21:57:24.467Z,2.40
2023-02-08T21:59:54.392Z,2.40
2023-02-08T22:02:33.875Z,2.30
2023-02-08T22:05:02.323Z,2.30
2023-02-08T22:07:42.190Z,2.30
2023-02-08T22:10:15.128Z,2.30
2023-02-08T22:12:47.368Z,2.20
2023-02-08T22:15:18.503Z,2.20
2023-02-08T22:17:51.817Z,2.20
2023-02-08T22:20:19.327Z,2.10
2023-02-08T22:22:49.209Z,2.10
2023-02-08T22:25:16.396Z,2.10
2023-02-08T22:27:46.322Z,2.00
2023-02-08T22:30:16.155Z,2.00
2023-02-08T22:32:49.121Z,2.00
2023-02-08T22:35:19.384Z,2.00
2023-02-08T22:37:46.573Z,2.00
2023-02-08T22:40:18.166Z,1.90
2023-02-08T22:42:50.392Z,1.90
2023-02-08T22:45:22.023Z,1.90
2023-02-08T22:47:49.181Z,1.90
2023-02-08T22:50:18.840Z,1.90
2023-02-08T22:52:50.884Z,1.90
2023-02-08T22:55:20.571Z,1.90
2023-02-08T22:57:47.710Z,1.90
2023-02-08T23:00:17.440Z,1.80
2023-02-08T23:02:46.855Z,1.80
2023-02-08T23:05:14.584Z,1.80
2023-02-08T23:07:43.917Z,1.80
2023-02-08T23:10:14.114Z,1.70
2023-02-08T23:12:41.280Z,1.70
2023-02-08T23:15:10.723Z,1.70
2023-02-08T23:17:43.055Z,1.70
2023-02-08T23:20:10.679Z,1.70
2023-02-08T23:22:38.093Z,1.60
2023-02-08T23:25:08.300Z,1.60
2023-02-08T23:27:40.099Z,1.60
2023-02-08T23:30:09.594Z,1.60
2023-02-08T23:32:36.889Z,1.60
2023-02-08T23:35:06.776Z,1.50
2023-02-08T23:37:38.721Z,1.50
2023-02-08T23:40:06.232Z,1.60
2023-02-08T23:42:35.434Z,1.50
2023-02-08T23:45:02.680Z,1.50
2023-02-08T23:47:30.958Z,1.50
2023-02-08T23:49:58.140Z,1.50
2023-02-08T23:52:30.486Z,1.50
2023-02-08T23:55:02.697Z,1.50
2023-02-08T23:57:37.447Z,1.50
